createdAt,value
2018-11-27T00:01:11.006Z,29.20
2018-11-27T00:03:57.813Z,29.30
2018-11-27T00:06:25.962Z,28.47
2018-11-27T00:08:54.070Z,28.00
2018-11-27T00:11:22.195Z,28.67
2018-11-27T00:13:50.309Z,28.07
2018-11-27T00:16:18.435Z,28.07
2018-11-27T00:18:46.560Z,27.67
2018-11-27T00:21:14.681Z,28.03
2018-11-27T00:23:42.782Z,28.70
2018-11-27T00:26:10.925Z,28.00
2018-11-27T00:28:39.050Z,29.83
2018-11-27T00:31:07.217Z,29.03
2018-11-27T00:33:35.481Z,28.00
2018-11-27T00:36:03.634Z,29.37
2018-11-27T00:38:31.739Z,29.10
2018-11-27T00:40:59.865Z,28.97
2018-11-27T00:43:27.983Z,28.87
2018-11-27T00:45:56.113Z,26.47
2018-11-27T00:48:24.313Z,28.33
2018-11-27T00:50:52.459Z,28.73
2018-11-27T00:53:20.567Z,27.90
2018-11-27T00:55:48.704Z,28.07
2018-11-27T00:58:16.902Z,28.87
2018-11-27T01:00:45.057Z,30.07
2018-11-27T01:03:13.167Z,28.20
2018-11-27T01:05:41.397Z,27.70
2018-11-27T01:08:09.527Z,27.73
2018-11-27T01:10:37.686Z,27.97
2018-11-27T01:13:06.126Z,29.10
2018-11-27T01:15:34.361Z,28.87
2018-11-27T01:18:02.481Z,28.37
2018-11-27T01:20:30.582Z,28.97
2018-11-27T01:22:58.726Z,27.60
2018-11-27T01:25:26.834Z,29.30
2018-11-27T01:27:55.028Z,28.33
2018-11-27T01:30:23.565Z,27.87
2018-11-27T01:32:51.939Z,27.43
2018-11-27T01:35:21.145Z,27.33
2018-11-27T01:37:49.857Z,28.00
2018-11-27T01:40:18.534Z,26.60
2018-11-27T01:42:47.220Z,28.13
2018-11-27T01:45:16.397Z,27.20
2018-11-27T01:47:44.597Z,28.27
2018-11-27T01:50:13.333Z,29.20
2018-11-27T01:52:41.501Z,28.17
2018-11-27T01:55:10.239Z,28.57
2018-11-27T01:57:38.373Z,27.07
2018-11-27T02:00:08.024Z,27.83
2018-11-27T02:02:36.218Z,28.43
2018-11-27T02:05:04.676Z,28.57
2018-11-27T02:07:32.817Z,27.40
2018-11-27T02:10:00.913Z,26.50
2018-11-27T02:12:29.023Z,27.80
2018-11-27T02:14:57.130Z,26.50
2018-11-27T02:17:26.352Z,27.17
2018-11-27T02:19:53.482Z,28.97
2018-11-27T02:22:21.682Z,27.37
2018-11-27T02:24:49.826Z,28.27
2018-11-27T02:27:18.018Z,28.47
2018-11-27T02:29:46.171Z,28.37
2018-11-27T02:32:14.263Z,29.07
2018-11-27T02:34:42.365Z,27.10
2018-11-27T02:37:10.465Z,27.67
2018-11-27T02:39:38.633Z,28.37
2018-11-27T02:42:06.749Z,27.33
2018-11-27T02:44:35.074Z,29.00
2018-11-27T02:47:03.184Z,28.20
2018-11-27T02:49:31.293Z,28.73
2018-11-27T02:51:59.439Z,27.50
2018-11-27T02:54:27.537Z,28.73
2018-11-27T02:56:55.762Z,27.93
2018-11-27T02:59:23.905Z,29.03
2018-11-27T03:01:52.115Z,29.17
2018-11-27T03:04:20.275Z,27.23
2018-11-27T03:06:48.429Z,28.50
2018-11-27T03:09:16.541Z,28.97
2018-11-27T03:11:44.713Z,27.70
2018-11-27T03:14:12.949Z,29.20
2018-11-27T03:16:41.566Z,27.50
2018-11-27T03:19:09.739Z,28.63
2018-11-27T03:21:37.899Z,28.40
2018-11-27T03:24:06.034Z,30.77
2018-11-27T03:26:34.229Z,29.10
2018-11-27T03:29:02.437Z,29.60
2018-11-27T03:31:31.270Z,28.77
2018-11-27T03:33:59.507Z,28.47
2018-11-27T03:36:27.682Z,28.57
2018-11-27T03:38:55.924Z,30.07
2018-11-27T03:41:24.093Z,28.37
2018-11-27T03:43:52.202Z,27.13
2018-11-27T03:46:20.325Z,30.27
2018-11-27T03:48:48.428Z,29.43
2018-11-27T03:51:16.540Z,27.87
2018-11-27T03:53:44.646Z,27.63
2018-11-27T03:56:12.765Z,29.33
2018-11-27T03:58:40.904Z,28.77
2018-11-27T04:01:09.004Z,28.27
2018-11-27T04:03:37.139Z,29.60
2018-11-27T04:06:05.313Z,30.23
2018-11-27T04:08:33.413Z,28.93
2018-11-27T04:11:01.998Z,28.57
2018-11-27T04:13:30.136Z,29.33
2018-11-27T04:15:58.343Z,28.77
2018-11-27T04:18:26.454Z,28.97
2018-11-27T04:20:54.583Z,29.13
2018-11-27T04:23:22.773Z,29.53
2018-11-27T04:25:50.909Z,28.13
2018-11-27T04:28:19.043Z,30.33
2018-11-27T04:30:47.158Z,28.23
2018-11-27T04:33:15.282Z,27.87
2018-11-27T04:35:43.436Z,29.40
2018-11-27T04:38:11.603Z,29.63
2018-11-27T04:40:39.863Z,29.20
2018-11-27T04:43:07.974Z,29.43
2018-11-27T04:45:36.343Z,29.40
2018-11-27T04:48:04.476Z,29.13
2018-11-27T04:50:32.649Z,29.27
2018-11-27T04:53:01.255Z,28.30
2018-11-27T04:55:29.412Z,29.60
2018-11-27T04:57:57.585Z,29.30
2018-11-27T05:00:26.177Z,29.17
2018-11-27T05:02:54.333Z,27.93
2018-11-27T05:05:22.619Z,30.70
2018-11-27T05:07:50.780Z,29.43
2018-11-27T05:10:20.102Z,30.27
2018-11-27T05:12:48.262Z,30.07
2018-11-27T05:15:19.516Z,30.13
2018-11-27T05:17:48.418Z,28.93
2018-11-27T05:20:16.513Z,29.73
2018-11-27T05:22:44.653Z,30.53
2018-11-27T05:25:13.549Z,30.63
2018-11-27T05:27:42.324Z,29.53
2018-11-27T05:30:13.834Z,28.77
2018-11-27T05:32:41.964Z,31.77
2018-11-27T05:35:14.778Z,28.47
2018-11-27T05:37:43.528Z,30.60
2018-11-27T05:40:13.278Z,31.07
2018-11-27T05:42:41.406Z,31.30
2018-11-27T05:45:12.501Z,29.77
2018-11-27T05:47:40.661Z,29.00
2018-11-27T05:50:10.387Z,28.97
2018-11-27T05:52:38.623Z,31.03
2018-11-27T05:55:07.403Z,29.93
2018-11-27T05:57:35.569Z,30.83
2018-11-27T06:00:04.685Z,29.67
2018-11-27T06:02:32.771Z,32.33
2018-11-27T06:05:00.902Z,28.27
2018-11-27T06:07:29.003Z,30.07
2018-11-27T06:09:57.158Z,29.57
2018-11-27T06:12:25.250Z,30.37
2018-11-27T06:14:53.434Z,30.10
2018-11-27T06:17:21.533Z,29.73
2018-11-27T06:19:49.637Z,31.27
2018-11-27T06:22:17.825Z,30.23
2018-11-27T06:24:46.609Z,31.70
2018-11-27T06:27:14.798Z,30.63
2018-11-27T06:29:42.957Z,31.77
2018-11-27T06:32:11.136Z,29.60
2018-11-27T06:34:39.317Z,31.07
2018-11-27T06:37:07.642Z,30.53
2018-11-27T06:39:36.250Z,32.03
2018-11-27T06:42:04.879Z,29.47
2018-11-27T06:44:33.000Z,29.53
2018-11-27T06:47:01.149Z,29.07
2018-11-27T06:49:29.320Z,30.60
2018-11-27T06:51:57.446Z,30.30
2018-11-27T06:54:25.576Z,31.07
2018-11-27T06:56:53.724Z,30.67
2018-11-27T06:59:21.828Z,29.80
2018-11-27T07:01:49.953Z,30.73
2018-11-27T07:04:18.100Z,29.93
2018-11-27T07:06:46.301Z,29.23
2018-11-27T07:09:14.389Z,30.07
2018-11-27T07:11:42.529Z,31.37
2018-11-27T07:14:10.653Z,30.53
2018-11-27T07:16:38.819Z,29.57
2018-11-27T07:19:06.937Z,31.27
2018-11-27T07:21:35.057Z,28.53
2018-11-27T07:24:03.173Z,30.90
2018-11-27T07:26:31.319Z,31.00
2018-11-27T07:28:59.474Z,29.43
2018-11-27T07:31:27.752Z,29.80
2018-11-27T07:33:55.959Z,30.53
2018-11-27T07:36:24.122Z,30.93
2018-11-27T07:38:52.835Z,30.90
2018-11-27T07:41:21.578Z,29.43
2018-11-27T07:43:50.541Z,29.77
2018-11-27T07:46:19.314Z,30.20
2018-11-27T07:48:48.796Z,29.77
2018-11-27T07:51:17.006Z,28.50
2018-11-27T07:53:45.442Z,29.77
2018-11-27T07:56:15.050Z,29.70
2018-11-27T07:58:43.957Z,30.90
2018-11-27T08:01:12.698Z,30.40
2018-11-27T08:03:40.842Z,30.57
2018-11-27T08:06:08.950Z,29.60
2018-11-27T08:08:37.177Z,31.47
2018-11-27T08:11:05.353Z,30.97
2018-11-27T08:13:33.471Z,30.40
2018-11-27T08:16:01.578Z,30.83
2018-11-27T08:18:29.704Z,31.30
2018-11-27T08:20:57.863Z,30.83
2018-11-27T08:23:25.983Z,31.17
2018-11-27T08:25:54.086Z,28.97
2018-11-27T08:28:22.230Z,32.27
2018-11-27T08:30:50.410Z,29.30
2018-11-27T08:33:18.545Z,28.43
2018-11-27T08:35:46.955Z,29.23
2018-11-27T08:38:15.073Z,29.57
2018-11-27T08:40:43.198Z,30.33
2018-11-27T08:43:11.297Z,30.67
2018-11-27T08:45:39.477Z,29.50
2018-11-27T08:48:07.756Z,28.90
2018-11-27T08:50:35.934Z,31.30
2018-11-27T08:53:05.165Z,30.10
2018-11-27T08:55:37.905Z,31.23
2018-11-27T08:58:09.968Z,30.23
2018-11-27T09:00:38.067Z,31.57
2018-11-27T09:03:06.169Z,30.40
2018-11-27T09:05:34.275Z,31.33
2018-11-27T09:08:02.383Z,31.40
2018-11-27T09:10:30.495Z,29.13
2018-11-27T09:12:58.827Z,29.57
2018-11-27T09:15:26.757Z,29.73
2018-11-27T09:17:55.585Z,30.33
2018-11-27T09:20:23.761Z,30.77
2018-11-27T09:22:51.905Z,30.53
2018-11-27T09:25:20.025Z,29.30
2018-11-27T09:27:48.157Z,29.10
2018-11-27T09:30:16.974Z,29.83
2018-11-27T09:32:45.093Z,29.17
2018-11-27T09:35:13.278Z,29.30
2018-11-27T09:37:41.375Z,29.73
2018-11-27T09:40:10.397Z,29.60
2018-11-27T09:42:38.546Z,28.67
2018-11-27T09:45:07.697Z,29.17
2018-11-27T09:47:35.813Z,29.57
2018-11-27T09:50:04.496Z,28.97
2018-11-27T09:52:32.629Z,29.90
2018-11-27T09:55:00.732Z,29.23
2018-11-27T09:57:28.871Z,28.67
2018-11-27T09:59:56.990Z,28.70
2018-11-27T10:02:25.087Z,27.83
2018-11-27T10:04:53.218Z,28.87
2018-11-27T10:07:21.339Z,30.30
2018-11-27T10:09:49.482Z,28.47
2018-11-27T10:12:17.581Z,30.03
2018-11-27T10:14:45.685Z,28.93
2018-11-27T10:17:13.804Z,28.33
2018-11-27T10:19:41.914Z,30.13
2018-11-27T10:22:10.014Z,30.60
2018-11-27T10:24:38.128Z,29.43
2018-11-27T10:27:06.241Z,28.57
2018-11-27T10:29:34.443Z,29.70
2018-11-27T10:32:02.626Z,31.77
2018-11-27T10:34:30.773Z,31.07
2018-11-27T10:36:58.977Z,30.33
2018-11-27T10:39:27.946Z,31.13
2018-11-27T10:41:56.136Z,30.13
2018-11-27T10:44:24.286Z,31.23
2018-11-27T10:46:52.510Z,30.97
2018-11-27T10:49:20.650Z,31.73
2018-11-27T10:51:48.759Z,31.17
2018-11-27T10:54:16.861Z,32.67
2018-11-27T10:56:45.093Z,32.77
2018-11-27T10:59:13.256Z,30.77
2018-11-27T11:01:46.858Z,33.03
2018-11-27T11:04:15.014Z,32.10
2018-11-27T11:06:43.111Z,31.83
2018-11-27T11:09:11.250Z,32.10
2018-11-27T11:11:39.355Z,30.60
2018-11-27T11:14:07.440Z,31.13
2018-11-27T11:16:35.607Z,35.23
2018-11-27T11:19:03.734Z,33.80
2018-11-27T11:21:31.833Z,33.10
2018-11-27T11:23:59.992Z,33.37
2018-11-27T11:26:28.094Z,33.40
2018-11-27T11:28:56.229Z,32.50
2018-11-27T11:31:24.337Z,33.07
2018-11-27T11:33:52.473Z,33.30
2018-11-27T11:36:20.658Z,33.53
2018-11-27T11:38:48.834Z,35.17
2018-11-27T11:41:16.931Z,33.90
2018-11-27T11:43:45.120Z,34.30
2018-11-27T11:46:13.250Z,35.90
2018-11-27T11:48:41.336Z,36.57
2018-11-27T11:51:09.481Z,38.03
2018-11-27T11:53:37.684Z,35.97
2018-11-27T11:56:06.895Z,37.50
2018-11-27T11:58:35.177Z,36.40
2018-11-27T12:01:03.377Z,37.47
2018-11-27T12:03:31.502Z,36.37
2018-11-27T12:05:59.677Z,35.83
2018-11-27T12:08:27.809Z,37.10
2018-11-27T12:10:55.949Z,37.03
2018-11-27T12:13:24.043Z,37.97
2018-11-27T12:15:52.225Z,38.20
2018-11-27T12:18:20.379Z,38.70
2018-11-27T12:20:48.575Z,38.00
2018-11-27T12:23:16.714Z,39.23
2018-11-27T12:25:44.825Z,38.77
2018-11-27T12:28:14.874Z,40.53
2018-11-27T12:30:41.132Z,39.23
2018-11-27T12:33:09.299Z,39.10
2018-11-27T12:35:37.399Z,39.00
2018-11-27T12:38:05.545Z,39.40
2018-11-27T12:40:33.656Z,38.10
2018-11-27T12:43:01.801Z,40.10
2018-11-27T12:45:31.334Z,39.20
2018-11-27T12:48:00.105Z,39.87
2018-11-27T12:50:30.318Z,38.90
2018-11-27T12:52:58.434Z,39.80
2018-11-27T12:55:26.565Z,39.20
2018-11-27T12:57:54.656Z,36.67
2018-11-27T13:00:25.496Z,38.70
2018-11-27T13:02:53.633Z,37.37
2018-11-27T13:05:25.315Z,37.83
2018-11-27T13:07:55.415Z,38.97
2018-11-27T13:10:23.525Z,37.93
2018-11-27T13:12:51.864Z,37.33
2018-11-27T13:15:20.357Z,38.13
2018-11-27T13:17:49.020Z,36.60
2018-11-27T13:20:17.695Z,35.23
2018-11-27T13:22:46.131Z,39.10
2018-11-27T13:25:14.900Z,37.47
2018-11-27T13:27:43.006Z,37.90
2018-11-27T13:30:12.064Z,41.37
2018-11-27T13:32:40.181Z,37.60
2018-11-27T13:35:09.636Z,38.47
2018-11-27T13:37:37.814Z,36.67
2018-11-27T13:40:06.582Z,37.80
2018-11-27T13:42:34.686Z,36.53
2018-11-27T13:45:02.797Z,36.70
2018-11-27T13:47:30.940Z,36.63
2018-11-27T13:49:59.118Z,39.33
2018-11-27T13:52:27.224Z,40.13
2018-11-27T13:54:55.314Z,39.97
2018-11-27T13:57:23.435Z,37.63
2018-11-27T13:59:51.548Z,38.40
2018-11-27T14:02:19.656Z,37.77
2018-11-27T14:04:47.755Z,40.10
2018-11-27T14:07:15.898Z,38.20
2018-11-27T14:09:45.222Z,38.47
2018-11-27T14:12:12.259Z,38.90
2018-11-27T14:14:40.374Z,36.87
2018-11-27T14:17:08.637Z,37.43
2018-11-27T14:19:36.790Z,38.37
2018-11-27T14:22:05.764Z,38.33
2018-11-27T14:24:33.860Z,36.17
2018-11-27T14:27:02.030Z,36.07
2018-11-27T14:29:30.169Z,38.00
2018-11-27T14:31:58.261Z,36.53
2018-11-27T14:34:26.364Z,38.63
2018-11-27T14:36:54.491Z,37.80
2018-11-27T14:39:22.592Z,37.13
2018-11-27T14:41:50.699Z,37.37
2018-11-27T14:44:18.790Z,37.30
2018-11-27T14:46:46.887Z,39.13
2018-11-27T14:49:15.086Z,39.23
2018-11-27T14:51:51.082Z,39.67
2018-11-27T14:54:19.235Z,38.93
2018-11-27T14:56:47.389Z,38.83
2018-11-27T14:59:15.486Z,40.67
2018-11-27T15:01:43.658Z,39.60
2018-11-27T15:04:11.821Z,39.00
2018-11-27T15:06:39.932Z,39.63
2018-11-27T15:09:09.126Z,40.07
2018-11-27T15:11:37.310Z,40.80
2018-11-27T15:14:05.463Z,40.33
2018-11-27T15:16:33.607Z,40.67
2018-11-27T15:19:01.842Z,38.90
2018-11-27T15:21:29.969Z,41.80
2018-11-27T15:23:58.141Z,41.90
2018-11-27T15:26:26.294Z,41.13
2018-11-27T15:28:54.897Z,38.30
2018-11-27T15:31:23.079Z,40.70
2018-11-27T15:33:51.485Z,38.87
2018-11-27T15:36:19.646Z,39.60
2018-11-27T15:38:47.777Z,39.50
2018-11-27T15:41:15.902Z,40.33
2018-11-27T15:43:44.642Z,38.73
2018-11-27T15:46:12.845Z,41.20
2018-11-27T15:48:41.014Z,39.63
2018-11-27T15:51:09.177Z,39.33
2018-11-27T15:53:37.308Z,39.73
2018-11-27T15:56:05.428Z,39.63
2018-11-27T15:58:33.545Z,39.27
2018-11-27T16:01:01.699Z,39.87
2018-11-27T16:03:29.888Z,42.30
2018-11-27T16:05:58.121Z,39.07
2018-11-27T16:08:26.250Z,41.13
2018-11-27T16:10:54.376Z,38.77
2018-11-27T16:13:22.490Z,38.50
2018-11-27T16:15:50.618Z,39.67
2018-11-27T16:18:18.777Z,40.67
2018-11-27T16:20:46.909Z,40.40
2018-11-27T16:23:15.025Z,39.93
2018-11-27T16:25:43.162Z,39.43
2018-11-27T16:28:11.257Z,37.77
2018-11-27T16:30:39.461Z,39.67
2018-11-27T16:33:07.590Z,38.43
2018-11-27T16:35:35.824Z,37.67
2018-11-27T16:38:03.950Z,38.57
2018-11-27T16:40:33.014Z,38.57
2018-11-27T16:43:01.182Z,41.80
2018-11-27T16:45:29.552Z,37.30
2018-11-27T16:47:57.742Z,37.77
2018-11-27T16:50:26.180Z,37.50
2018-11-27T16:52:54.383Z,37.33
2018-11-27T16:55:23.091Z,38.33
2018-11-27T16:57:51.378Z,38.70
2018-11-27T17:00:20.235Z,38.20
2018-11-27T17:02:50.253Z,38.50
2018-11-27T17:05:17.153Z,36.70
2018-11-27T17:07:45.307Z,36.33
2018-11-27T17:10:13.991Z,38.80
2018-11-27T17:12:42.359Z,36.93
2018-11-27T17:15:11.335Z,38.13
2018-11-27T17:17:39.474Z,37.77
2018-11-27T17:20:10.179Z,39.03
2018-11-27T17:22:38.330Z,39.63
2018-11-27T17:25:06.527Z,39.03
2018-11-27T17:27:34.639Z,40.17
2018-11-27T17:30:02.745Z,42.00
2018-11-27T17:32:30.936Z,42.13
2018-11-27T17:34:59.061Z,41.40
2018-11-27T17:37:27.205Z,40.43
2018-11-27T17:39:55.563Z,43.43
2018-11-27T17:42:23.962Z,45.20
2018-11-27T17:44:52.363Z,44.53
2018-11-27T17:47:20.712Z,47.57
2018-11-27T17:49:49.098Z,46.80
2018-11-27T17:52:17.491Z,46.80
2018-11-27T17:54:46.265Z,46.90
2018-11-27T17:57:14.783Z,45.13
2018-11-27T17:59:43.920Z,46.13
2018-11-27T18:02:12.289Z,44.53
2018-11-27T18:04:40.657Z,48.07
2018-11-27T18:07:08.815Z,45.90
2018-11-27T18:09:37.126Z,45.53
2018-11-27T18:12:05.534Z,46.67
2018-11-27T18:14:33.806Z,47.00
2018-11-27T18:17:02.090Z,46.80
2018-11-27T18:19:30.339Z,45.07
2018-11-27T18:21:59.074Z,47.23
2018-11-27T18:24:27.982Z,46.93
2018-11-27T18:26:56.225Z,49.73
2018-11-27T18:29:24.489Z,51.37
2018-11-27T18:31:52.644Z,49.13
2018-11-27T18:34:20.993Z,53.00
2018-11-27T18:36:49.608Z,52.77
2018-11-27T18:39:20.677Z,51.93
2018-11-27T18:41:50.174Z,56.73
2018-11-27T18:44:18.364Z,51.60
2018-11-27T18:46:48.385Z,51.80
2018-11-27T18:49:16.590Z,51.70
2018-11-27T18:51:44.741Z,52.40
2018-11-27T18:54:14.510Z,51.07
2018-11-27T18:56:42.745Z,51.17
2018-11-27T18:59:10.850Z,50.93
2018-11-27T19:01:39.024Z,55.17
2018-11-27T19:04:08.573Z,50.93
2018-11-27T19:06:37.298Z,50.43
2018-11-27T19:09:09.678Z,51.00
2018-11-27T19:11:39.028Z,51.60
2018-11-27T19:14:11.120Z,50.83
2018-11-27T19:16:40.909Z,52.07
2018-11-27T19:19:11.020Z,52.23
2018-11-27T19:21:39.330Z,50.53
2018-11-27T19:24:08.130Z,47.67
2018-11-27T19:26:36.420Z,51.40
2018-11-27T19:29:04.667Z,50.80
2018-11-27T19:31:32.811Z,51.83
2018-11-27T19:34:01.007Z,51.03
2018-11-27T19:36:29.135Z,51.13
2018-11-27T19:38:57.298Z,51.57
2018-11-27T19:41:25.453Z,53.23
2018-11-27T19:43:53.642Z,51.57
2018-11-27T19:46:21.785Z,52.60
2018-11-27T19:48:53.456Z,49.27
2018-11-27T19:51:18.121Z,48.90
2018-11-27T19:53:46.326Z,48.10
2018-11-27T19:56:14.457Z,50.57
2018-11-27T19:58:42.662Z,48.83
2018-11-27T20:01:11.042Z,48.50
2018-11-27T20:03:39.257Z,50.83
2018-11-27T20:06:07.392Z,48.80
2018-11-27T20:08:35.527Z,51.33
2018-11-27T20:11:03.681Z,50.40
2018-11-27T20:13:31.948Z,52.03
2018-11-27T20:16:00.359Z,52.83
2018-11-27T20:18:28.876Z,51.00
2018-11-27T20:20:57.089Z,52.77
2018-11-27T20:23:25.331Z,52.17
2018-11-27T20:25:53.497Z,50.70
2018-11-27T20:28:21.738Z,49.27
2018-11-27T20:30:49.921Z,52.83
2018-11-27T20:33:18.116Z,51.47
2018-11-27T20:35:47.071Z,53.40
2018-11-27T20:38:15.309Z,47.77
2018-11-27T20:40:43.501Z,49.97
2018-11-27T20:43:11.764Z,48.63
2018-11-27T20:45:39.947Z,49.23
2018-11-27T20:48:12.069Z,53.23
2018-11-27T20:50:40.262Z,50.13
2018-11-27T20:53:08.450Z,48.00
2018-11-27T20:55:36.673Z,50.33
2018-11-27T20:58:05.195Z,50.23
2018-11-27T21:00:34.401Z,48.40
2018-11-27T21:03:02.912Z,48.17
2018-11-27T21:05:31.116Z,49.07
2018-11-27T21:07:59.348Z,45.90
2018-11-27T21:10:27.530Z,49.80
2018-11-27T21:12:55.793Z,46.20
2018-11-27T21:15:24.001Z,47.33
2018-11-27T21:17:52.246Z,44.97
2018-11-27T21:20:20.395Z,45.20
2018-11-27T21:22:48.545Z,44.90
2018-11-27T21:25:18.149Z,44.13
2018-11-27T21:27:47.165Z,45.73
2018-11-27T21:30:15.839Z,45.13
2018-11-27T21:32:44.126Z,44.70
2018-11-27T21:35:13.049Z,43.30
2018-11-27T21:37:41.260Z,42.17
2018-11-27T21:40:12.478Z,42.83
2018-11-27T21:42:40.675Z,42.80
2018-11-27T21:45:39.982Z,44.80
2018-11-27T21:48:08.340Z,41.13
2018-11-27T21:50:40.159Z,42.07
2018-11-27T21:53:08.280Z,41.17
2018-11-27T21:55:36.735Z,40.47
2018-11-27T21:58:04.956Z,40.00
2018-11-27T22:00:33.049Z,40.90
2018-11-27T22:03:01.233Z,40.90
2018-11-27T22:05:29.374Z,40.13
2018-11-27T22:07:57.551Z,39.90
2018-11-27T22:10:25.942Z,40.10
2018-11-27T22:12:54.643Z,39.03
2018-11-27T22:15:29.590Z,40.83
2018-11-27T22:17:57.722Z,38.53
2018-11-27T22:20:25.981Z,38.73
2018-11-27T22:22:54.374Z,38.83
2018-11-27T22:25:22.563Z,39.50
2018-11-27T22:27:50.718Z,38.60
2018-11-27T22:30:19.846Z,37.90
2018-11-27T22:32:49.614Z,39.30
2018-11-27T22:35:17.751Z,37.17
2018-11-27T22:37:45.928Z,38.63
2018-11-27T22:40:17.493Z,38.23
2018-11-27T22:42:45.982Z,37.13
2018-11-27T22:45:15.467Z,37.03
2018-11-27T22:47:43.637Z,37.57
2018-11-27T22:50:12.317Z,36.97
2018-11-27T22:52:40.432Z,36.53
2018-11-27T22:55:08.877Z,35.30
2018-11-27T22:57:37.032Z,35.23
2018-11-27T23:00:10.270Z,36.03
2018-11-27T23:02:38.379Z,35.07
2018-11-27T23:05:06.644Z,37.00
2018-11-27T23:07:43.362Z,34.03
2018-11-27T23:10:12.036Z,35.83
2018-11-27T23:12:40.180Z,34.50
2018-11-27T23:15:09.029Z,34.87
2018-11-27T23:17:37.150Z,34.07
2018-11-27T23:20:14.402Z,34.13
2018-11-27T23:22:42.526Z,34.87
2018-11-27T23:25:11.102Z,35.70
2018-11-27T23:27:39.286Z,34.53
2018-11-27T23:30:09.208Z,34.90
2018-11-27T23:32:37.346Z,35.97
2018-11-27T23:35:05.538Z,34.00
2018-11-27T23:37:33.731Z,32.87
2018-11-27T23:40:01.861Z,34.40
2018-11-27T23:42:29.987Z,33.23
2018-11-27T23:44:58.107Z,34.80
2018-11-27T23:47:26.199Z,34.23
2018-11-27T23:49:54.358Z,35.00
2018-11-27T23:52:22.446Z,34.20
2018-11-27T23:54:50.545Z,34.10
2018-11-27T23:57:18.642Z,33.00
2018-11-27T23:59:46.753Z,33.00
